Meteo Giornale » Osservazioni meteo Italia » Perugia

ore: 07:20 - Osservazioni Meteo Perugia
Lat. 43° 5' N Lon. 12° 30' E Alt. 208 metri s.l.m.

sereno Europe/Rome

15 °C

Sereno

Temp. 24 Ore

13 °C

26 °C

Nord

1.8 Km/h

Dew point 15 °C

Umidità 100 %

Visibilità  10 Km

Il sole sorge alle ore 05:32

Il sole tramonta alle ore 20:42

Data e Ora Cielo e Fenomeni T °C DP °C Um. % Pres. hPa Vis. km Vento km/h
Oggi h: 07:20 sereno Sereno 15 15 100 1015 10 N 1.8
Oggi h: 06:50 sereno Sereno 15 15 100 1015 10 N 5.5
Oggi h: 06:20 sereno Sereno 14 14 100 1015 10 N 13
Oggi h: 05:50 sereno Sereno 13 13 100 1015 10 N 5.5
Oggi h: 05:20 sereno Sereno 14 14 100 1015 10 N 9.3
Oggi h: 04:50 sereno Sereno 14 14 100 1015 10 N 11.1
Oggi h: 04:20 sereno Sereno 14 14 100 1015 10 N 14.8
Oggi h: 03:50 poco_nuvoloso Poco Nuvoloso 14 14 100 1015 10 N 11.1
Oggi h: 03:20 molto_nuvoloso Molto Nuvoloso 15 15 100 1015 10 N/NE 9.3
Oggi h: 02:50 molto_nuvoloso Molto Nuvoloso 14 14 100 1015 10 N/NE 7.4
Oggi h: 02:20 poco_nuvoloso Poco Nuvoloso 15 15 100 1015 10 N/NE 9.3
Oggi h: 01:50 poco_nuvoloso Poco Nuvoloso 15 15 100 1015 10 N 5.5
Oggi h: 01:20 molto_nuvoloso Molto Nuvoloso 15 15 100 1016 10 N 9.3
Oggi h: 00:50 molto_nuvoloso Molto Nuvoloso 16 16 100 1016 10 N/NE 7.4
Oggi h: 00:20 molto_nuvoloso Molto Nuvoloso 16 16 100 1015 10 NE 7.4
Ieri h: 23:50 molto_nuvoloso Molto Nuvoloso 16 16 100 1015 10 N 7.4
Ieri h: 23:20 molto_nuvoloso Molto Nuvoloso 16 16 100 1016 10 N/NO 9.3
Ieri h: 22:50 coperto_pioggia Pioggia Debole 17 17 100 1015 9 E 9.3
Ieri h: 22:20 nuvoloso_temporali Temporale con Pioggia 17 16 93 1016 6 N/NO 14.8
Ieri h: 21:50 nuvoloso_temporali Temporale nelle Vicinanze 18 14 77 1015 10 N/NE 11.1
Ieri h: 21:20 nuvoloso_temporali Temporale nelle Vicinanze 19 13 68 1014 10 E/SE 11.1
Ieri h: 20:50 nuvoloso_temporali Temporale nelle Vicinanze 19 13 68 1014 10 E 29.6
Ieri h: 20:20 coperto_temporali Temporale 21 15 68 1014 10 N 5.5
Ieri h: 19:50 molto_nuvoloso Molto Nuvoloso 22 15 64 1013 10 O/SO 13
Ieri h: 19:20 molto_nuvoloso Molto Nuvoloso 24 14 53 1012 10 S/SE 9.3
Ieri h: 18:50 nuvoloso Nuvoloso 25 14 50 1012 10 S 7.4
Ieri h: 18:20 nuvoloso Nuvoloso 26 13 44 1012 10 S/SO 9.3
Ieri h: 17:50 poco_nuvoloso Poco Nuvoloso 25 13 47 1012 10 S 7.4
Ieri h: 17:20 molto_nuvoloso Molto Nuvoloso 25 13 47 1013 10 SE 7.4
Ieri h: 16:50 molto_nuvoloso Molto Nuvoloso 25 13 47 1013 10 N 5.5
Ieri h: 16:20 poco_nuvoloso Poco Nuvoloso 25 12 44 1013 10 SO 9.3
Ieri h: 15:50 sereno Sereno 26 12 41 1013 10 SO 13
Ieri h: 15:20 poco_nuvoloso Poco Nuvoloso 26 13 44 1013 10 SO 7.4
Ieri h: 14:50 nuvoloso Nuvoloso 25 13 47 1014 10 SO 14.8
Ieri h: 14:20 molto_nuvoloso Molto Nuvoloso 24 13 50 1014 10 O/SO 7.4
Ieri h: 13:50 nuvoloso Nuvoloso 25 13 47 1014 10 S/SO 9.3
Ieri h: 13:20 poco_nuvoloso Poco Nuvoloso 25 12 44 1014 10 O/SO 13
Ieri h: 12:50 nuvoloso Nuvoloso 25 14 50 1015 10 N 7.4
Ieri h: 12:20 poco_nuvoloso Poco Nuvoloso 24 14 53 1015 10 N 7.4
Ieri h: 11:50 sereno Sereno 23 13 53 1015 10 SO 7.4
Ieri h: 11:20 sereno Sereno 23 13 53 1015 10 N 5.5
Ieri h: 10:50 poco_nuvoloso Poco Nuvoloso 22 14 60 1016 10 N 5.5
Ieri h: 10:20 nuvoloso Nuvoloso 21 14 64 1016 10 N 3.7
Ieri h: 09:50 sereno Sereno 20 13 64 1016 10 N 3.7
Ieri h: 09:20 poco_nuvoloso Poco Nuvoloso 18 14 77 1016 10 NO 7.4
Ieri h: 08:50 molto_nuvoloso Molto Nuvoloso 18 15 82 1016 10 N 3.7
Ieri h: 08:20 molto_nuvoloso Molto Nuvoloso 18 15 82 1016 10 N 5.5
Ieri h: 07:50 nuvoloso Nuvoloso 17 17 100 1016 10 N 5.5